sensor_id;sensor_type;location;lat;lon;timestamp;pressure;altitude;pressure_sealevel;temperature;humidity
27864;BME280;15980;51.092;13.916;2023-04-06T00:02:55;99129.19;;;-0.43;80.87
27864;BME280;15980;51.092;13.916;2023-04-06T00:12:55;99124.28;;;-0.46;80.47
27864;BME280;15980;51.092;13.916;2023-04-06T00:22:56;99125.00;;;-0.60;80.19
27864;BME280;15980;51.092;13.916;2023-04-06T00:32:56;99131.06;;;-0.75;80.48
27864;BME280;15980;51.092;13.916;2023-04-06T00:42:56;99126.25;;;-0.73;81.46
27864;BME280;15980;51.092;13.916;2023-04-06T00:52:58;99127.91;;;-0.67;81.83
27864;BME280;15980;51.092;13.916;2023-04-06T01:02:58;99124.03;;;-0.44;82.38
27864;BME280;15980;51.092;13.916;2023-04-06T01:12:59;99121.34;;;-0.44;83.14
27864;BME280;15980;51.092;13.916;2023-04-06T01:22:59;99117.09;;;-0.40;82.65
27864;BME280;15980;51.092;13.916;2023-04-06T01:32:59;99108.38;;;-0.47;83.17
27864;BME280;15980;51.092;13.916;2023-04-06T01:43:00;99114.69;;;-0.37;82.23
27864;BME280;15980;51.092;13.916;2023-04-06T01:53:00;99109.63;;;-0.28;82.95
27864;BME280;15980;51.092;13.916;2023-04-06T02:03:00;99106.47;;;-0.15;82.81
27864;BME280;15980;51.092;13.916;2023-04-06T02:13:01;99098.13;;;-0.08;83.21
27864;BME280;15980;51.092;13.916;2023-04-06T02:23:01;99105.69;;;-0.05;82.48
27864;BME280;15980;51.092;13.916;2023-04-06T02:33:02;99104.88;;;-0.06;82.97
27864;BME280;15980;51.092;13.916;2023-04-06T02:43:03;99103.88;;;0.01;82.83
27864;BME280;15980;51.092;13.916;2023-04-06T02:53:03;99097.28;;;-0.14;82.34
27864;BME280;15980;51.092;13.916;2023-04-06T03:03:03;99102.84;;;-0.30;82.73
27864;BME280;15980;51.092;13.916;2023-04-06T03:13:04;99102.41;;;-0.54;83.03
27864;BME280;15980;51.092;13.916;2023-04-06T03:23:04;99097.03;;;-0.86;81.95
27864;BME280;15980;51.092;13.916;2023-04-06T03:33:04;99100.53;;;-1.13;83.01
27864;BME280;15980;51.092;13.916;2023-04-06T03:43:05;99115.91;;;-1.35;82.94
27864;BME280;15980;51.092;13.916;2023-04-06T03:53:05;99117.06;;;-1.53;83.22
27864;BME280;15980;51.092;13.916;2023-04-06T04:03:05;99120.63;;;-1.69;83.55
27864;BME280;15980;51.092;13.916;2023-04-06T04:13:06;99125.78;;;-1.84;84.14
27864;BME280;15980;51.092;13.916;2023-04-06T04:23:06;99128.28;;;-2.00;84.36
27864;BME280;15980;51.092;13.916;2023-04-06T04:33:06;99131.09;;;-2.11;84.60
27864;BME280;15980;51.092;13.916;2023-04-06T04:43:07;99123.41;;;-2.03;85.84
27864;BME280;15980;51.092;13.916;2023-04-06T04:53:07;99124.34;;;-1.92;85.31
27864;BME280;15980;51.092;13.916;2023-04-06T05:03:08;99132.31;;;-1.80;84.76
27864;BME280;15980;51.092;13.916;2023-04-06T05:13:09;99136.47;;;-1.73;83.67
27864;BME280;15980;51.092;13.916;2023-04-06T05:23:09;99132.44;;;-1.48;84.39
27864;BME280;15980;51.092;13.916;2023-04-06T05:33:10;99141.75;;;-1.12;84.24
27864;BME280;15980;51.092;13.916;2023-04-06T05:43:11;99144.03;;;-0.72;83.39
27864;BME280;15980;51.092;13.916;2023-04-06T05:53:11;99143.84;;;-0.28;82.16
27864;BME280;15980;51.092;13.916;2023-04-06T06:03:13;99148.41;;;0.03;81.54
27864;BME280;15980;51.092;13.916;2023-04-06T06:13:13;99152.22;;;0.65;82.47
27864;BME280;15980;51.092;13.916;2023-04-06T06:23:14;99148.84;;;1.10;80.94
27864;BME280;15980;51.092;13.916;2023-04-06T06:33:14;99158.63;;;1.46;79.17
27864;BME280;15980;51.092;13.916;2023-04-06T06:43:14;99151.88;;;1.84;77.81
27864;BME280;15980;51.092;13.916;2023-04-06T06:53:14;99157.50;;;2.18;77.21
27864;BME280;15980;51.092;13.916;2023-04-06T07:03:15;99165.47;;;2.69;73.37
27864;BME280;15980;51.092;13.916;2023-04-06T07:13:15;99163.94;;;3.12;71.70
27864;BME280;15980;51.092;13.916;2023-04-06T07:23:15;99164.81;;;3.42;68.60
27864;BME280;15980;51.092;13.916;2023-04-06T07:33:16;99158.25;;;3.82;68.47
27864;BME280;15980;51.092;13.916;2023-04-06T07:43:16;99157.72;;;4.14;64.88
27864;BME280;15980;51.092;13.916;2023-04-06T07:53:17;99157.44;;;4.63;61.99
27864;BME280;15980;51.092;13.916;2023-04-06T08:03:17;99162.34;;;4.85;57.01
27864;BME280;15980;51.092;13.916;2023-04-06T08:13:17;99179.53;;;5.23;53.01
27864;BME280;15980;51.092;13.916;2023-04-06T08:23:18;99176.88;;;5.37;52.84
27864;BME280;15980;51.092;13.916;2023-04-06T08:33:18;99171.50;;;5.70;48.56
27864;BME280;15980;51.092;13.916;2023-04-06T08:43:19;99177.66;;;5.94;47.21
27864;BME280;15980;51.092;13.916;2023-04-06T08:53:22;99175.72;;;6.13;46.58
27864;BME280;15980;51.092;13.916;2023-04-06T09:03:23;99164.66;;;5.91;45.67
27864;BME280;15980;51.092;13.916;2023-04-06T09:13:24;99165.34;;;6.43;48.45
27864;BME280;15980;51.092;13.916;2023-04-06T09:23:24;99165.28;;;6.61;46.30
27864;BME280;15980;51.092;13.916;2023-04-06T09:33:24;99153.34;;;6.99;45.78
27864;BME280;15980;51.092;13.916;2023-04-06T09:43:26;99138.19;;;7.42;44.49
27864;BME280;15980;51.092;13.916;2023-04-06T09:53:28;99133.19;;;8.11;43.93
27864;BME280;15980;51.092;13.916;2023-04-06T10:13:49;99121.66;;;10.61;40.13
27864;BME280;15980;51.092;13.916;2023-04-06T10:24:06;99125.34;;;10.95;35.90
27864;BME280;15980;51.092;13.916;2023-04-06T10:34:07;99113.72;;;10.98;34.52
27864;BME280;15980;51.092;13.916;2023-04-06T10:44:07;99107.00;;;11.70;33.75
27864;BME280;15980;51.092;13.916;2023-04-06T10:54:08;99110.13;;;11.48;32.32
27864;BME280;15980;51.092;13.916;2023-04-06T11:04:09;99111.19;;;11.35;32.30
27864;BME280;15980;51.092;13.916;2023-04-06T11:14:09;99093.09;;;11.13;32.92
27864;BME280;15980;51.092;13.916;2023-04-06T11:24:12;99084.75;;;11.30;32.90
27864;BME280;15980;51.092;13.916;2023-04-06T11:34:17;99079.72;;;10.52;33.97
27864;BME280;15980;51.092;13.916;2023-04-06T11:44:43;99078.78;;;10.01;34.70
27864;BME280;15980;51.092;13.916;2023-04-06T11:54:44;99075.38;;;10.04;36.06
27864;BME280;15980;51.092;13.916;2023-04-06T12:04:46;99068.22;;;9.57;35.26
27864;BME280;15980;51.092;13.916;2023-04-06T12:14:46;99070.16;;;9.30;35.78
27864;BME280;15980;51.092;13.916;2023-04-06T12:24:46;99065.34;;;9.19;34.47
27864;BME280;15980;51.092;13.916;2023-04-06T12:34:47;99042.59;;;9.61;34.44
27864;BME280;15980;51.092;13.916;2023-04-06T12:44:47;99031.78;;;10.20;34.90
27864;BME280;15980;51.092;13.916;2023-04-06T12:54:47;99026.06;;;10.93;34.24
27864;BME280;15980;51.092;13.916;2023-04-06T13:04:50;99013.38;;;11.21;34.92
27864;BME280;15980;51.092;13.916;2023-04-06T13:14:51;99002.44;;;11.33;34.31
27864;BME280;15980;51.092;13.916;2023-04-06T13:24:51;98999.66;;;11.00;34.23
27864;BME280;15980;51.092;13.916;2023-04-06T13:34:54;99009.84;;;9.73;35.76
27864;BME280;15980;51.092;13.916;2023-04-06T13:44:55;99012.19;;;8.76;36.86
27864;BME280;15980;51.092;13.916;2023-04-06T13:54:55;99006.38;;;8.87;36.08
27864;BME280;15980;51.092;13.916;2023-04-06T14:04:55;98986.56;;;9.07;36.41
27864;BME280;15980;51.092;13.916;2023-04-06T14:14:56;98985.25;;;9.39;37.10
27864;BME280;15980;51.092;13.916;2023-04-06T14:24:56;98982.16;;;9.58;36.22
27864;BME280;15980;51.092;13.916;2023-04-06T14:34:57;98973.88;;;9.20;36.04
27864;BME280;15980;51.092;13.916;2023-04-06T14:44:57;98973.88;;;9.11;35.67
27864;BME280;15980;51.092;13.916;2023-04-06T14:54:57;98969.09;;;9.63;35.95
27864;BME280;15980;51.092;13.916;2023-04-06T15:04:58;98975.06;;;10.03;35.83
27864;BME280;15980;51.092;13.916;2023-04-06T15:14:58;98958.84;;;10.28;35.73
27864;BME280;15980;51.092;13.916;2023-04-06T15:24:58;98953.28;;;10.36;35.47
27864;BME280;15980;51.092;13.916;2023-04-06T15:34:59;98957.94;;;10.45;35.50
27864;BME280;15980;51.092;13.916;2023-04-06T15:44:59;98949.69;;;10.15;34.30
27864;BME280;15980;51.092;13.916;2023-04-06T15:54:59;98948.13;;;10.05;35.40
27864;BME280;15980;51.092;13.916;2023-04-06T16:05:00;98949.78;;;9.98;35.47
27864;BME280;15980;51.092;13.916;2023-04-06T16:15:00;98955.19;;;9.77;35.87
27864;BME280;15980;51.092;13.916;2023-04-06T16:25:01;98956.00;;;9.77;37.23
27864;BME280;15980;51.092;13.916;2023-04-06T16:35:03;98958.03;;;9.42;37.00
27864;BME280;15980;51.092;13.916;2023-04-06T16:45:04;98948.44;;;9.02;37.83
27864;BME280;15980;51.092;13.916;2023-04-06T16:55:05;98950.69;;;8.65;38.66
27864;BME280;15980;51.092;13.916;2023-04-06T17:05:06;98955.63;;;8.29;41.41
27864;BME280;15980;51.092;13.916;2023-04-06T17:15:07;98962.00;;;7.76;42.63
27864;BME280;15980;51.092;13.916;2023-04-06T17:25:08;98963.09;;;7.35;44.83
27864;BME280;15980;51.092;13.916;2023-04-06T17:35:09;98965.66;;;6.87;46.07
27864;BME280;15980;51.092;13.916;2023-04-06T17:45:10;98971.66;;;6.39;46.54
27864;BME280;15980;51.092;13.916;2023-04-06T17:55:10;98975.31;;;5.93;47.80
27864;BME280;15980;51.092;13.916;2023-04-06T18:05:10;98986.31;;;5.42;50.32
27864;BME280;15980;51.092;13.916;2023-04-06T18:15:10;98990.28;;;4.85;52.06
27864;BME280;15980;51.092;13.916;2023-04-06T18:25:11;99002.09;;;4.37;55.37
27864;BME280;15980;51.092;13.916;2023-04-06T18:35:11;98994.16;;;3.98;57.35
27864;BME280;15980;51.092;13.916;2023-04-06T18:45:11;99000.19;;;3.66;60.11
27864;BME280;15980;51.092;13.916;2023-04-06T18:55:12;99009.78;;;3.30;61.28
27864;BME280;15980;51.092;13.916;2023-04-06T19:05:12;98989.75;;;2.92;63.93
27864;BME280;15980;51.092;13.916;2023-04-06T19:15:13;98996.50;;;2.55;63.92
27864;BME280;15980;51.092;13.916;2023-04-06T19:25:13;98999.66;;;2.23;64.42
27864;BME280;15980;51.092;13.916;2023-04-06T19:35:14;99009.78;;;1.97;65.46
27864;BME280;15980;51.092;13.916;2023-04-06T19:45:14;99010.66;;;1.82;66.32
27864;BME280;15980;51.092;13.916;2023-04-06T19:55:15;98995.53;;;1.61;66.32
27864;BME280;15980;51.092;13.916;2023-04-06T20:05:15;99006.66;;;1.54;67.38
27864;BME280;15980;51.092;13.916;2023-04-06T20:15:16;99011.81;;;1.46;68.44
27864;BME280;15980;51.092;13.916;2023-04-06T20:25:17;99010.72;;;1.42;67.38
27864;BME280;15980;51.092;13.916;2023-04-06T20:35:17;99012.09;;;1.39;67.07
27864;BME280;15980;51.092;13.916;2023-04-06T20:45:18;98999.38;;;1.35;67.07
27864;BME280;15980;51.092;13.916;2023-04-06T20:55:18;99002.34;;;1.28;68.15
27864;BME280;15980;51.092;13.916;2023-04-06T21:05:18;99000.47;;;1.23;67.64
27864;BME280;15980;51.092;13.916;2023-04-06T21:15:18;98995.59;;;1.25;67.00
27864;BME280;15980;51.092;13.916;2023-04-06T21:25:19;98992.38;;;1.13;68.79
27864;BME280;15980;51.092;13.916;2023-04-06T21:35:19;99000.22;;;1.05;68.64
27864;BME280;15980;51.092;13.916;2023-04-06T21:45:19;98993.47;;;0.97;69.92
27864;BME280;15980;51.092;13.916;2023-04-06T21:55:19;98993.97;;;0.84;70.58
27864;BME280;15980;51.092;13.916;2023-04-06T22:05:20;98978.31;;;0.76;71.10
27864;BME280;15980;51.092;13.916;2023-04-06T22:15:20;98973.72;;;0.71;70.45
27864;BME280;15980;51.092;13.916;2023-04-06T22:25:21;98972.09;;;0.65;70.70
27864;BME280;15980;51.092;13.916;2023-04-06T22:35:21;98961.28;;;0.60;70.74
27864;BME280;15980;51.092;13.916;2023-04-06T22:45:21;98958.84;;;0.48;71.23
27864;BME280;15980;51.092;13.916;2023-04-06T22:55:22;98961.28;;;0.45;70.97
27864;BME280;15980;51.092;13.916;2023-04-06T23:05:22;98960.97;;;0.31;70.24
27864;BME280;15980;51.092;13.916;2023-04-06T23:15:22;98951.50;;;0.13;71.26
27864;BME280;15980;51.092;13.916;2023-04-06T23:25:23;98946.84;;;-0.02;71.83
27864;BME280;15980;51.092;13.916;2023-04-06T23:35:23;98950.31;;;-0.16;72.05
27864;BME280;15980;51.092;13.916;2023-04-06T23:45:23;98936.50;;;-0.30;72.91
27864;BME280;15980;51.092;13.916;2023-04-06T23:55:24;98937.00;;;-0.43;73.53
